Time;durP1;ratioP1;P1;durP2;ratioP2;P2;SDS_P1;SDS_P2;PMS_P1;PMS_P2;Temp;Humidity;BMP_temperature;BMP_pressure;BME280_temperature;BME280_humidity;BME280_pressure;Samples;Min_cycle;Max_cycle;Signal;HPM_P1;HPM_P2
2023/03/05 00:00:07;;;;;;;10.25;6.30;;;20.10;69.00;;;;;;5042330;28;20259;-54
2023/03/05 00:02:34;;;;;;;8.25;5.93;;;20.10;69.00;;;;;;5045828;28;20198;-53
2023/03/05 00:05:01;;;;;;;8.10;6.40;;;20.10;69.10;;;;;;5046470;28;20195;-50
2023/03/05 00:07:27;;;;;;;6.35;5.55;;;20.10;69.10;;;;;;5046013;28;20196;-49
2023/03/05 00:09:54;;;;;;;6.30;5.68;;;20.10;69.10;;;;;;5039201;28;20599;-53
2023/03/05 00:12:22;;;;;;;10.05;6.90;;;20.10;69.00;;;;;;5045937;28;20211;-49
2023/03/05 00:14:49;;;;;;;9.05;7.90;;;20.00;69.00;;;;;;5048138;28;20199;-49
2023/03/05 00:17:15;;;;;;;7.97;6.22;;;20.00;69.00;;;;;;5043441;28;20192;-50
2023/03/05 00:19:42;;;;;;;7.65;6.13;;;20.00;69.00;;;;;;5043790;28;20211;-52
2023/03/05 00:22:09;;;;;;;8.90;6.28;;;20.00;68.90;;;;;;5044921;28;20215;-50
2023/03/05 00:24:36;;;;;;;9.48;6.00;;;20.00;69.00;;;;;;5046722;28;20203;-48
2023/03/05 00:27:02;;;;;;;7.47;6.40;;;20.00;68.90;;;;;;5041733;28;20196;-55
2023/03/05 00:29:30;;;;;;;7.47;5.90;;;20.00;69.00;;;;;;5039813;28;20207;-55
2023/03/05 00:31:57;;;;;;;11.77;6.63;;;20.00;69.00;;;;;;5043525;28;20536;-52
2023/03/05 00:34:24;;;;;;;10.35;5.85;;;20.00;69.00;;;;;;5042095;28;20199;-50
2023/03/05 00:36:52;;;;;;;10.93;5.95;;;20.00;69.00;;;;;;5042893;28;20207;-51
2023/03/05 00:39:20;;;;;;;6.22;5.10;;;20.00;69.10;;;;;;5048188;28;20218;-52
2023/03/05 00:41:47;;;;;;;6.30;5.70;;;20.00;69.00;;;;;;5043145;28;20305;-53
2023/03/05 00:44:14;;;;;;;9.63;6.32;;;20.00;69.00;;;;;;5042933;28;20709;-51
2023/03/05 00:46:42;;;;;;;7.20;5.45;;;20.00;69.00;;;;;;5051384;28;20199;-53
2023/03/05 00:49:08;;;;;;;6.30;5.70;;;20.00;69.00;;;;;;5041785;28;20199;-52
2023/03/05 00:51:35;;;;;;;7.85;6.05;;;20.00;69.00;;;;;;5043953;28;20215;-49
2023/03/05 00:54:02;;;;;;;8.55;6.18;;;20.00;69.00;;;;;;5040045;28;20196;-50
2023/03/05 00:56:29;;;;;;;6.00;5.40;;;20.00;68.90;;;;;;5045783;28;20201;-53
2023/03/05 00:58:56;;;;;;;7.32;5.60;;;20.00;69.00;;;;;;5041628;28;20572;-49
2023/03/05 01:01:23;;;;;;;6.63;5.95;;;20.00;68.90;;;;;;5043035;28;20219;-50
2023/03/05 01:03:51;;;;;;;7.55;5.30;;;20.00;68.90;;;;;;5036326;28;20202;-54
2023/03/05 01:06:18;;;;;;;6.28;4.97;;;20.00;68.90;;;;;;5044029;28;20206;-54
2023/03/05 01:08:45;;;;;;;6.40;5.65;;;20.00;68.90;;;;;;5048925;28;20204;-54
2023/03/05 01:11:12;;;;;;;6.60;6.00;;;20.00;68.80;;;;;;5047611;28;20210;-55
2023/03/05 01:13:39;;;;;;;6.93;5.10;;;20.00;68.80;;;;;;5048091;28;20195;-52
2023/03/05 01:16:06;;;;;;;6.30;5.35;;;20.00;68.80;;;;;;5044889;28;20196;-52
2023/03/05 01:18:34;;;;;;;7.28;5.82;;;20.00;68.70;;;;;;5046407;28;20671;-53
2023/03/05 01:21:03;;;;;;;6.18;5.47;;;20.00;68.70;;;;;;5047995;28;20227;-55
2023/03/05 01:23:30;;;;;;;7.43;5.03;;;20.00;68.70;;;;;;5047770;28;20207;-55
2023/03/05 01:25:58;;;;;;;7.05;5.38;;;20.00;68.70;;;;;;5048698;28;20195;-51
2023/03/05 01:28:25;;;;;;;7.40;5.80;;;20.00;68.70;;;;;;5045699;28;20203;-51
2023/03/05 01:30:51;;;;;;;8.25;5.93;;;20.00;68.60;;;;;;5038031;28;20199;-51
2023/03/05 01:33:19;;;;;;;7.45;5.05;;;20.00;68.60;;;;;;5050696;28;20207;-49
2023/03/05 01:35:47;;;;;;;5.70;4.93;;;20.00;68.50;;;;;;5051582;28;20199;-51
2023/03/05 01:38:16;;;;;;;11.38;5.40;;;20.00;68.60;;;;;;5046652;28;20195;-51
2023/03/05 01:40:44;;;;;;;5.50;5.00;;;20.00;68.50;;;;;;5044218;28;20218;-51
2023/03/05 01:43:23;;;;;;;5.05;4.53;;;20.00;68.50;;;;;;5045294;28;20204;-49
2023/03/05 01:46:29;;;;;;;6.47;5.18;;;20.00;68.50;;;;;;5041361;28;20223;-49
2023/03/05 01:49:02;;;;;;;6.50;5.15;;;20.00;68.50;;;;;;5043456;28;20293;-53
2023/03/05 01:51:32;;;;;;;6.72;4.78;;;20.00;68.50;;;;;;5050139;28;20238;-49
2023/03/05 01:54:00;;;;;;;7.00;4.65;;;20.00;68.50;;;;;;5048935;28;20192;-49
2023/03/05 01:56:29;;;;;;;9.43;5.63;;;20.00;68.50;;;;;;5047958;28;20198;-49
2023/03/05 01:59:02;;;;;;;6.78;4.55;;;19.90;68.40;;;;;;5050307;28;20199;-50
2023/03/05 02:01:30;;;;;;;6.97;4.55;;;19.90;68.40;;;;;;5051288;28;20321;-49
2023/03/05 02:03:57;;;;;;;5.60;4.63;;;19.90;68.30;;;;;;5045573;28;20211;-48
2023/03/05 02:06:24;;;;;;;5.28;4.63;;;19.90;68.30;;;;;;5049189;28;20195;-49
2023/03/05 02:08:51;;;;;;;5.68;5.07;;;19.90;68.40;;;;;;5044161;28;20567;-49
2023/03/05 02:11:20;;;;;;;6.03;5.03;;;19.90;68.30;;;;;;5049225;28;20207;-53
2023/03/05 02:13:47;;;;;;;6.57;4.68;;;19.90;69.10;;;;;;5044785;28;20233;-51
2023/03/05 02:16:13;;;;;;;5.13;4.28;;;19.90;68.30;;;;;;5048449;28;20203;-56
2023/03/05 02:18:40;;;;;;;4.90;4.40;;;19.90;68.30;;;;;;5044521;28;20195;-49
2023/03/05 02:21:08;;;;;;;6.05;4.30;;;19.90;68.30;;;;;;5046746;28;20212;-48
2023/03/05 02:23:37;;;;;;;4.78;4.30;;;19.90;68.30;;;;;;5042750;28;20206;-57
2023/03/05 02:26:05;;;;;;;5.35;4.60;;;20.00;68.40;;;;;;5050237;28;20196;-51
2023/03/05 02:28:36;;;;;;;5.93;4.78;;;19.90;68.30;;;;;;5046150;28;20382;-48
2023/03/05 02:31:07;;;;;;;4.72;4.03;;;19.90;68.30;;;;;;5044612;28;20653;-49
2023/03/05 02:33:34;;;;;;;6.32;4.47;;;19.90;68.30;;;;;;5047950;28;20187;-49
2023/03/05 02:36:01;;;;;;;4.50;4.10;;;19.90;68.20;;;;;;5045917;28;20199;-48
2023/03/05 02:38:29;;;;;;;6.38;4.63;;;19.90;68.20;;;;;;5043829;28;20839;-49
2023/03/05 02:40:55;;;;;;;7.72;5.20;;;19.90;68.30;;;;;;5045149;28;20519;-48
2023/03/05 02:43:22;;;;;;;8.40;4.90;;;19.90;68.70;;;;;;5045063;28;20206;-52
2023/03/05 02:45:49;;;;;;;5.30;4.53;;;19.90;68.20;;;;;;5043434;28;20599;-52
2023/03/05 02:48:15;;;;;;;4.07;3.60;;;19.90;68.20;;;;;;5043465;28;20205;-49
2023/03/05 02:50:43;;;;;;;4.70;4.28;;;19.90;68.20;;;;;;5047909;28;20196;-49
2023/03/05 02:53:10;;;;;;;4.82;4.20;;;19.90;68.20;;;;;;5048344;28;20200;-53
2023/03/05 02:55:38;;;;;;;6.35;4.50;;;19.90;68.20;;;;;;5045989;28;20218;-49
2023/03/05 02:58:05;;;;;;;6.00;5.38;;;19.90;68.20;;;;;;5039137;28;20194;-49
2023/03/05 03:00:31;;;;;;;4.78;4.38;;;19.90;68.20;;;;;;5046022;28;20231;-49
2023/03/05 03:02:58;;;;;;;4.80;4.00;;;19.90;68.20;;;;;;5046420;28;20191;-56
2023/03/05 03:05:25;;;;;;;5.60;4.40;;;19.90;68.20;;;;;;5042575;28;20254;-54
2023/03/05 03:07:51;;;;;;;6.95;5.00;;;19.90;68.20;;;;;;5037817;28;20193;-48
2023/03/05 03:10:18;;;;;;;4.95;3.88;;;19.90;68.20;;;;;;5042645;28;20206;-50
2023/03/05 03:12:46;;;;;;;6.13;3.75;;;19.90;68.90;;;;;;5047317;28;20192;-48
2023/03/05 03:15:15;;;;;;;7.68;4.97;;;19.90;68.20;;;;;;5042582;28;20199;-49
2023/03/05 03:17:42;;;;;;;6.55;4.50;;;19.90;68.10;;;;;;5041778;28;20207;-50
2023/03/05 03:20:14;;;;;;;5.55;4.95;;;19.90;68.20;;;;;;5041132;28;20567;-51
2023/03/05 03:22:41;;;;;;;6.20;4.05;;;19.90;68.10;;;;;;5040306;28;20254;-51
2023/03/05 03:25:09;;;;;;;7.50;4.15;;;19.90;68.20;;;;;;5043416;28;20709;-53
2023/03/05 03:27:36;;;;;;;6.05;4.20;;;19.90;68.10;;;;;;5046877;28;20595;-53
2023/03/05 03:30:05;;;;;;;3.95;3.50;;;19.90;68.10;;;;;;5041835;28;20199;-52
2023/03/05 03:32:32;;;;;;;4.35;3.95;;;19.90;68.10;;;;;;5041074;28;20233;-52
2023/03/05 03:35:00;;;;;;;4.65;4.25;;;19.90;68.10;;;;;;5045928;28;20202;-51
2023/03/05 03:37:30;;;;;;;4.50;3.75;;;19.90;68.10;;;;;;5041695;28;20196;-52
2023/03/05 03:39:57;;;;;;;4.32;3.65;;;19.90;68.10;;;;;;5046968;28;20207;-51
2023/03/05 03:42:24;;;;;;;3.78;3.38;;;19.90;68.10;;;;;;5046052;28;20226;-49
2023/03/05 03:44:51;;;;;;;4.32;3.90;;;19.90;68.10;;;;;;5046839;28;20191;-50
2023/03/05 03:47:19;;;;;;;4.80;4.30;;;19.90;68.10;;;;;;5040456;28;20191;-48
2023/03/05 03:49:46;;;;;;;4.38;3.95;;;19.90;68.10;;;;;;5046836;28;20203;-48
2023/03/05 03:52:13;;;;;;;5.75;4.40;;;19.90;68.10;;;;;;5045915;28;20563;-51
2023/03/05 03:54:40;;;;;;;3.72;3.42;;;19.90;68.00;;;;;;5046684;28;20622;-50
2023/03/05 03:57:06;;;;;;;4.03;3.70;;;19.90;68.00;;;;;;5046560;28;20845;-53
2023/03/05 03:59:33;;;;;;;4.45;3.90;;;19.90;68.00;;;;;;5049196;28;20202;-53
2023/03/05 04:02:00;;;;;;;4.95;3.90;;;19.90;68.00;;;;;;5049796;28;20215;-51
2023/03/05 04:04:29;;;;;;;4.10;3.63;;;19.90;68.00;;;;;;5043891;28;20203;-55
2023/03/05 04:06:55;;;;;;;3.97;3.58;;;19.90;68.10;;;;;;5048348;28;20264;-50
2023/03/05 04:09:22;;;;;;;5.22;3.42;;;19.80;67.80;;;;;;5044926;28;20202;-52
2023/03/05 04:11:49;;;;;;;5.13;3.40;;;19.80;67.80;;;;;;5042273;28;20203;-54
2023/03/05 04:14:15;;;;;;;3.95;3.25;;;19.80;67.80;;;;;;5047897;28;20670;-53
2023/03/05 04:16:42;;;;;;;3.13;2.83;;;19.80;67.80;;;;;;5042392;28;20202;-49
2023/03/05 04:19:09;;;;;;;3.50;3.20;;;19.90;67.90;;;;;;5043536;28;20203;-51
2023/03/05 04:21:37;;;;;;;3.95;3.40;;;19.80;67.80;;;;;;5049338;28;20234;-54
2023/03/05 04:24:04;;;;;;;4.35;3.70;;;19.80;67.80;;;;;;5047097;28;20199;-51
2023/03/05 04:26:31;;;;;;;4.32;3.47;;;19.80;67.80;;;;;;5044908;28;20191;-52
2023/03/05 04:28:58;;;;;;;3.97;3.17;;;19.80;68.60;;;;;;5041141;28;20199;-50
2023/03/05 04:31:24;;;;;;;3.85;3.33;;;19.80;67.80;;;;;;5043206;28;20203;-50
2023/03/05 04:33:51;;;;;;;3.70;3.30;;;19.80;67.80;;;;;;5042224;28;20191;-55
2023/03/05 04:36:18;;;;;;;4.35;3.97;;;19.80;67.80;;;;;;5042938;28;20204;-50
2023/03/05 04:38:46;;;;;;;3.90;3.60;;;19.80;67.80;;;;;;5044413;28;20591;-53
2023/03/05 04:41:13;;;;;;;3.63;3.30;;;19.80;67.80;;;;;;5047688;28;20229;-57
2023/03/05 04:43:39;;;;;;;4.35;3.63;;;19.80;67.70;;;;;;5051337;28;20207;-52
2023/03/05 04:46:06;;;;;;;3.65;3.35;;;19.80;67.70;;;;;;5047387;28;20196;-48
2023/03/05 04:48:33;;;;;;;3.60;3.25;;;19.80;67.70;;;;;;5045366;28;20198;-49
2023/03/05 04:50:59;;;;;;;3.08;2.78;;;19.80;68.50;;;;;;5050470;28;20198;-50
2023/03/05 04:53:26;;;;;;;3.95;3.65;;;19.80;67.70;;;;;;5049358;28;20199;-49
2023/03/05 04:55:55;;;;;;;3.88;3.47;;;19.80;67.70;;;;;;5052315;28;20207;-48
2023/03/05 04:58:23;;;;;;;3.20;2.90;;;19.80;67.70;;;;;;5048221;28;20191;-49
2023/03/05 05:00:49;;;;;;;3.50;3.20;;;19.80;67.70;;;;;;5046892;28;20203;-52
2023/03/05 05:03:16;;;;;;;3.70;3.40;;;19.80;67.70;;;;;;5051087;28;20794;-51
2023/03/05 05:05:43;;;;;;;3.60;3.10;;;19.80;67.70;;;;;;5045837;28;20192;-55
2023/03/05 05:08:10;;;;;;;4.20;3.70;;;19.80;67.70;;;;;;5048808;28;20199;-51
2023/03/05 05:10:38;;;;;;;3.25;2.75;;;19.80;67.70;;;;;;5046869;28;20204;-48
2023/03/05 05:13:07;;;;;;;4.28;3.85;;;19.80;67.60;;;;;;5045393;28;20195;-53
2023/03/05 05:15:33;;;;;;;4.70;3.45;;;19.80;67.60;;;;;;5045713;28;20548;-52
2023/03/05 05:18:00;;;;;;;3.10;2.75;;;19.80;67.60;;;;;;5047172;28;20201;-51
2023/03/05 05:20:27;;;;;;;3.70;3.40;;;19.80;67.60;;;;;;5051173;28;20203;-49
2023/03/05 05:22:53;;;;;;;3.90;3.40;;;19.80;67.60;;;;;;5050546;28;20241;-50
2023/03/05 05:25:20;;;;;;;3.88;3.35;;;19.80;67.60;;;;;;5046950;28;20219;-53
2023/03/05 05:27:47;;;;;;;3.85;3.47;;;19.80;67.60;;;;;;5049798;28;20563;-49
2023/03/05 05:30:16;;;;;;;4.25;3.22;;;19.80;67.60;;;;;;5044134;28;20192;-52
2023/03/05 05:32:43;;;;;;;4.72;4.00;;;19.80;67.60;;;;;;5050927;28;20196;-49
2023/03/05 05:35:10;;;;;;;3.17;2.88;;;19.80;67.60;;;;;;5049286;28;20207;-50
2023/03/05 05:37:37;;;;;;;4.97;3.58;;;19.80;67.50;;;;;;5049575;28;20455;-49
2023/03/05 05:40:05;;;;;;;3.58;3.08;;;19.80;67.50;;;;;;5044592;28;20199;-49
2023/03/05 05:42:32;;;;;;;3.50;3.20;;;19.80;67.80;;;;;;5046074;28;20587;-52
2023/03/05 05:44:58;;;;;;;2.80;2.60;;;19.80;67.60;;;;;;5047168;28;20475;-48
2023/03/05 05:47:26;;;;;;;3.50;3.05;;;19.80;67.60;;;;;;5042549;28;20568;-49
2023/03/05 05:49:53;;;;;;;3.05;2.75;;;19.80;67.50;;;;;;5049497;28;20199;-59
2023/03/05 05:52:20;;;;;;;3.65;3.00;;;19.80;67.50;;;;;;5048768;28;20218;-56
2023/03/05 05:54:47;;;;;;;3.75;2.50;;;19.80;67.60;;;;;;5048435;28;20210;-48
2023/03/05 05:57:14;;;;;;;3.92;2.92;;;19.80;67.50;;;;;;5051197;28;20218;-55
2023/03/05 05:59:41;;;;;;;3.53;3.22;;;19.80;67.50;;;;;;5044428;28;20541;-53
2023/03/05 06:02:09;;;;;;;3.03;2.75;;;19.80;67.50;;;;;;5048716;28;20215;-49
2023/03/05 06:04:39;;;;;;;3.80;3.30;;;19.80;67.50;;;;;;5047949;28;20223;-51
2023/03/05 06:07:06;;;;;;;4.45;2.88;;;19.80;67.50;;;;;;5047306;28;20615;-51
2023/03/05 06:09:34;;;;;;;2.80;2.20;;;19.80;67.50;;;;;;5044525;28;20768;-49
2023/03/05 06:12:01;;;;;;;2.60;2.40;;;19.80;67.50;;;;;;5050612;28;20191;-49
2023/03/05 06:14:28;;;;;;;3.90;3.20;;;19.80;67.50;;;;;;5049750;28;20663;-52
2023/03/05 06:16:54;;;;;;;4.30;2.55;;;19.80;67.50;;;;;;5047827;28;20188;-48
2023/03/05 06:19:21;;;;;;;4.55;2.85;;;19.80;67.40;;;;;;5043704;28;20192;-48
2023/03/05 06:21:49;;;;;;;3.65;2.63;;;19.80;67.40;;;;;;5044353;28;20227;-53
2023/03/05 06:24:18;;;;;;;3.05;2.70;;;19.80;67.30;;;;;;5050992;28;20206;-52
2023/03/05 06:26:45;;;;;;;2.78;2.53;;;19.80;67.30;;;;;;5049071;28;20580;-54
2023/03/05 06:29:12;;;;;;;3.15;2.85;;;19.80;67.30;;;;;;5046829;28;20322;-54
2023/03/05 06:31:39;;;;;;;2.33;2.13;;;19.90;67.50;;;;;;5046769;28;20313;-53
2023/03/05 06:34:06;;;;;;;3.42;3.13;;;19.90;67.40;;;;;;5049238;28;20648;-50
2023/03/05 06:36:32;;;;;;;3.20;2.90;;;19.90;67.50;;;;;;5047412;28;20211;-53
2023/03/05 06:39:00;;;;;;;2.70;2.50;;;19.90;67.50;;;;;;5049445;28;20630;-52
2023/03/05 06:41:29;;;;;;;2.80;2.50;;;19.80;67.30;;;;;;5042517;28;20227;-51
2023/03/05 06:43:56;;;;;;;2.90;2.60;;;19.80;67.30;;;;;;5041079;28;20242;-53
2023/03/05 06:46:25;;;;;;;3.28;2.78;;;19.80;67.30;;;;;;5048566;28;20207;-53
2023/03/05 06:48:54;;;;;;;2.60;2.40;;;19.80;67.40;;;;;;5047278;28;20196;-56
2023/03/05 06:51:23;;;;;;;3.28;2.47;;;19.80;67.40;;;;;;5044034;28;20253;-51
2023/03/05 06:53:51;;;;;;;3.22;2.40;;;19.80;67.50;;;;;;5049728;28;20196;-49
2023/03/05 06:56:20;;;;;;;4.90;3.03;;;19.80;67.30;;;;;;5049103;28;20191;-50
2023/03/05 06:58:49;;;;;;;2.85;2.65;;;19.90;67.50;;;;;;5046643;28;20195;-52
2023/03/05 07:01:16;;;;;;;3.05;2.55;;;19.90;67.40;;;;;;5047491;28;20742;-52
2023/03/05 07:03:44;;;;;;;2.28;1.92;;;19.90;67.40;;;;;;5045565;28;20203;-51
2023/03/05 07:06:12;;;;;;;2.60;2.38;;;19.90;67.30;;;;;;5046841;28;20203;-55
2023/03/05 07:08:39;;;;;;;3.40;2.90;;;19.90;67.30;;;;;;5037304;28;20214;-51
2023/03/05 07:11:10;;;;;;;2.70;2.50;;;19.90;67.30;;;;;;5044480;28;20195;-53
2023/03/05 07:13:38;;;;;;;3.10;2.60;;;19.90;67.30;;;;;;5046641;28;20215;-56
2023/03/05 07:16:06;;;;;;;2.75;2.40;;;19.90;67.30;;;;;;5046857;28;20666;-54
2023/03/05 07:18:33;;;;;;;4.88;2.47;;;19.90;67.30;;;;;;5046609;28;20192;-53
2023/03/05 07:21:02;;;;;;;4.70;2.80;;;19.90;67.30;;;;;;5047567;28;20203;-49
2023/03/05 07:23:29;;;;;;;3.33;1.95;;;19.90;67.30;;;;;;5045176;28;20223;-54
2023/03/05 07:25:55;;;;;;;2.90;2.20;;;19.90;67.30;;;;;;5040077;28;20191;-51
2023/03/05 07:28:22;;;;;;;2.72;2.42;;;19.90;67.30;;;;;;5047274;28;20199;-49
2023/03/05 07:30:56;;;;;;;2.80;2.53;;;20.00;67.50;;;;;;5044149;28;20199;-49
2023/03/05 07:33:23;;;;;;;3.13;2.80;;;20.00;67.50;;;;;;5048045;28;20260;-49
2023/03/05 07:35:50;;;;;;;3.05;2.20;;;20.00;67.40;;;;;;5042035;28;20655;-49
2023/03/05 07:38:17;;;;;;;2.97;2.42;;;20.00;67.40;;;;;;5047995;28;20203;-50
2023/03/05 07:40:44;;;;;;;3.47;2.58;;;20.00;67.80;;;;;;5044437;28;20202;-49
2023/03/05 07:43:10;;;;;;;2.35;2.15;;;20.00;67.40;;;;;;5046134;28;20231;-50
2023/03/05 07:45:39;;;;;;;3.50;3.13;;;20.00;67.40;;;;;;5048350;28;20206;-49
2023/03/05 07:48:12;;;;;;;3.03;2.20;;;20.00;67.30;;;;;;5048209;28;20194;-48
2023/03/05 07:50:38;;;;;;;3.10;2.35;;;19.90;67.30;;;;;;5040445;28;20679;-49
2023/03/05 07:53:05;;;;;;;3.15;2.90;;;19.90;67.20;;;;;;5040926;28;20583;-49
2023/03/05 07:55:32;;;;;;;2.70;2.20;;;19.90;67.30;;;;;;5043180;28;20198;-57
2023/03/05 07:57:58;;;;;;;3.65;2.58;;;19.90;67.30;;;;;;5040688;28;20686;-54
2023/03/05 08:00:25;;;;;;;3.50;2.08;;;20.00;67.70;;;;;;5039791;28;20200;-52
2023/03/05 08:02:52;;;;;;;2.13;1.90;;;20.10;68.10;;;;;;5049692;28;20211;-54
2023/03/05 08:05:20;;;;;;;4.25;2.28;;;20.10;67.90;;;;;;5044144;28;20203;-53
2023/03/05 08:07:47;;;;;;;2.45;2.25;;;20.00;67.10;;;;;;5057098;28;20203;-52
2023/03/05 08:10:13;;;;;;;4.35;2.75;;;19.90;67.00;;;;;;5043547;28;20684;-50
2023/03/05 08:12:40;;;;;;;2.58;2.13;;;19.90;67.10;;;;;;5045445;28;20203;-48
2023/03/05 08:15:08;;;;;;;3.85;2.60;;;19.90;67.20;;;;;;5047495;28;20195;-53
2023/03/05 08:17:35;;;;;;;3.20;2.20;;;19.90;67.10;;;;;;5050429;28;20457;-50
2023/03/05 08:20:04;;;;;;;3.50;2.20;;;19.90;67.10;;;;;;5055041;28;20224;-49
2023/03/05 08:22:33;;;;;;;4.40;2.17;;;19.90;67.10;;;;;;5057123;28;20238;-48
2023/03/05 08:24:59;;;;;;;2.63;2.33;;;19.90;67.10;;;;;;5052203;28;20192;-51
2023/03/05 08:27:27;;;;;;;4.90;2.95;;;19.90;67.00;;;;;;5050043;28;20203;-48
2023/03/05 08:29:53;;;;;;;5.93;2.25;;;19.90;67.10;;;;;;5043427;28;20217;-50
2023/03/05 08:32:20;;;;;;;2.67;2.05;;;19.90;67.00;;;;;;5049847;28;20215;-49
2023/03/05 08:34:47;;;;;;;2.70;2.50;;;19.90;67.10;;;;;;5049852;28;20207;-51
2023/03/05 08:37:13;;;;;;;6.22;2.78;;;19.90;67.10;;;;;;5052956;28;20207;-50
2023/03/05 08:39:41;;;;;;;4.43;2.03;;;19.90;67.10;;;;;;5050184;28;20206;-48
2023/03/05 08:42:08;;;;;;;3.05;2.70;;;19.90;67.10;;;;;;5052174;28;20580;-52
2023/03/05 08:44:35;;;;;;;4.85;2.60;;;19.90;67.10;;;;;;5049114;28;20204;-54
2023/03/05 08:47:02;;;;;;;3.92;2.30;;;19.90;67.20;;;;;;5045613;28;20199;-53
2023/03/05 08:49:28;;;;;;;2.55;1.85;;;19.90;67.30;;;;;;5045384;28;20196;-50
2023/03/05 08:51:55;;;;;;;3.40;2.22;;;19.90;67.40;;;;;;5045672;28;20188;-48
2023/03/05 08:54:22;;;;;;;3.25;2.30;;;20.00;67.60;;;;;;5046179;28;20200;-51
2023/03/05 08:56:50;;;;;;;3.38;2.22;;;20.00;67.60;;;;;;5045065;28;20671;-49
2023/03/05 08:59:16;;;;;;;2.08;1.88;;;20.00;67.70;;;;;;5040655;28;20743;-51
2023/03/05 09:01:43;;;;;;;2.25;2.05;;;20.00;67.60;;;;;;5046106;28;20199;-57
2023/03/05 09:04:10;;;;;;;2.47;2.25;;;20.00;67.70;;;;;;5046695;28;20795;-49
2023/03/05 09:06:39;;;;;;;3.08;1.90;;;20.00;67.70;;;;;;5040509;28;20195;-53
2023/03/05 09:09:06;;;;;;;2.63;2.28;;;20.00;67.70;;;;;;5044545;28;20655;-54
2023/03/05 09:11:34;;;;;;;2.28;1.75;;;20.10;67.70;;;;;;5046500;28;20230;-49
2023/03/05 09:14:03;;;;;;;2.45;1.90;;;20.10;67.70;;;;;;5049909;28;20196;-49
2023/03/05 09:16:30;;;;;;;2.35;2.10;;;20.10;67.70;;;;;;5045786;28;20197;-60
2023/03/05 09:18:58;;;;;;;2.05;1.85;;;20.10;67.70;;;;;;5043722;28;21051;-48
2023/03/05 09:21:24;;;;;;;3.50;2.28;;;20.10;67.70;;;;;;5050362;28;20753;-49
2023/03/05 09:23:51;;;;;;;2.20;1.77;;;20.10;67.70;;;;;;5049091;28;20702;-51
2023/03/05 09:26:19;;;;;;;3.20;2.30;;;20.10;67.70;;;;;;5049060;28;20199;-52
2023/03/05 09:28:46;;;;;;;2.00;1.80;;;20.10;67.70;;;;;;5045975;28;20245;-56
2023/03/05 09:31:14;;;;;;;2.47;1.73;;;20.10;67.70;;;;;;5048738;28;20207;-51
2023/03/05 09:33:41;;;;;;;3.13;2.40;;;20.10;67.70;;;;;;5044048;28;20283;-48
2023/03/05 09:36:18;;;;;;;2.05;1.60;;;20.10;67.60;;;;;;5048663;28;20200;-53
2023/03/05 09:38:45;;;;;;;1.73;1.60;;;20.10;67.60;;;;;;5044115;28;20210;-57
2023/03/05 09:41:17;;;;;;;7.82;2.08;;;20.10;67.60;;;;;;5046058;28;20192;-50
2023/03/05 09:43:52;;;;;;;2.20;1.75;;;20.10;67.60;;;;;;5049901;28;20222;-51
2023/03/05 09:46:32;;;;;;;3.33;2.28;;;20.10;67.70;;;;;;5048191;28;20195;-53
2023/03/05 09:49:11;;;;;;;2.33;1.98;;;20.10;67.60;;;;;;5039221;28;20192;-56
2023/03/05 09:51:40;;;;;;;8.93;2.17;;;20.10;67.60;;;;;;5050717;28;20188;-53
2023/03/05 09:54:14;;;;;;;2.00;1.65;;;20.10;67.60;;;;;;5042480;28;20192;-49
2023/03/05 09:56:42;;;;;;;2.45;1.88;;;20.10;67.60;;;;;;5045168;28;20199;-52
2023/03/05 09:59:20;;;;;;;2.58;1.85;;;20.10;67.60;;;;;;5039402;28;20222;-55
2023/03/05 10:01:50;;;;;;;2.03;1.88;;;20.10;67.60;;;;;;5044376;28;20283;-53
2023/03/05 10:04:23;;;;;;;1.42;1.30;;;20.10;67.60;;;;;;5041488;28;20599;-60
2023/03/05 10:06:55;;;;;;;1.88;1.67;;;20.10;67.60;;;;;;5046344;28;20199;-60
2023/03/05 10:09:37;;;;;;;2.58;1.85;;;20.10;67.60;;;;;;5041390;28;20188;-56
2023/03/05 10:12:07;;;;;;;2.17;1.42;;;20.10;67.70;;;;;;5041022;28;20210;-57
2023/03/05 10:14:38;;;;;;;2.10;1.88;;;20.10;67.70;;;;;;5044656;28;20210;-56
2023/03/05 10:17:39;;;;;;;2.70;1.45;;;20.20;67.80;;;;;;5046025;28;20320;-58
2023/03/05 10:20:30;;;;;;;2.72;1.77;;;20.20;68.70;;;;;;5037962;28;20190;-55
2023/03/05 10:23:16;;;;;;;1.83;1.30;;;20.20;68.00;;;;;;5045257;28;20226;-59
2023/03/05 10:25:54;;;;;;;1.60;1.48;;;20.20;68.00;;;;;;5044285;28;20211;-55
2023/03/05 10:28:25;;;;;;;2.85;1.77;;;20.30;68.20;;;;;;5046320;28;20203;-51
2023/03/05 10:31:08;;;;;;;2.40;1.48;;;20.30;68.30;;;;;;5037038;28;20211;-56
2023/03/05 10:33:43;;;;;;;2.30;1.73;;;20.30;68.20;;;;;;5039137;28;20198;-57
2023/03/05 10:36:28;;;;;;;2.00;1.50;;;20.30;68.40;;;;;;5043604;28;20208;-52
2023/03/05 10:39:46;;;;;;;2.25;1.80;;;20.30;68.50;;;;;;5039563;28;20197;-58
2023/03/05 10:42:21;;;;;;;1.60;1.50;;;20.40;68.60;;;;;;5041727;28;20196;-58
2023/03/05 10:44:51;;;;;;;1.43;1.33;;;20.40;68.60;;;;;;5048496;28;20217;-60
2023/03/05 10:47:25;;;;;;;2.13;1.90;;;20.40;68.70;;;;;;5047678;28;20458;-60
2023/03/05 10:49:54;;;;;;;1.90;1.40;;;20.40;69.50;;;;;;5039884;28;20663;-56
2023/03/05 10:52:27;;;;;;;2.75;1.55;;;20.40;68.90;;;;;;5047438;28;20203;-57
2023/03/05 10:54:54;;;;;;;3.40;1.57;;;20.40;68.90;;;;;;5041574;28;20200;-64
2023/03/05 10:57:22;;;;;;;2.33;1.45;;;20.50;69.00;;;;;;5039899;28;20467;-61
2023/03/05 10:59:52;;;;;;;1.30;1.15;;;20.50;69.10;;;;;;5048172;28;20199;-60
2023/03/05 11:02:20;;;;;;;2.20;1.47;;;20.50;69.10;;;;;;5046516;28;20198;-57
2023/03/05 11:04:47;;;;;;;2.93;1.70;;;20.50;69.20;;;;;;5046173;28;20489;-57
2023/03/05 11:07:37;;;;;;;2.15;1.50;;;20.50;69.20;;;;;;5047284;28;20576;-63
2023/03/05 11:10:14;;;;;;;1.70;1.30;;;20.50;69.20;;;;;;5043997;28;20199;-54
2023/03/05 11:12:41;;;;;;;1.60;1.50;;;20.50;69.20;;;;;;5039658;28;20969;-59
2023/03/05 11:15:29;;;;;;;4.00;1.93;;;20.50;69.30;;;;;;5050774;28;20453;-53
2023/03/05 11:18:16;;;;;;;2.45;1.90;;;20.50;69.30;;;;;;5039904;28;20570;-55
2023/03/05 11:20:43;;;;;;;3.23;1.50;;;20.50;69.40;;;;;;5042535;28;20234;-57
2023/03/05 11:23:13;;;;;;;1.80;1.40;;;20.50;70.20;;;;;;5034969;28;20494;-52
2023/03/05 11:26:01;;;;;;;2.90;1.30;;;20.30;67.40;;;;;;5041944;28;20677;-61
2023/03/05 11:28:31;;;;;;;1.75;1.25;;;19.90;61.50;;;;;;5044886;28;20195;-59
2023/03/05 11:31:06;;;;;;;1.67;1.20;;;19.60;59.80;;;;;;5042104;28;20200;-60
2023/03/05 11:33:33;;;;;;;4.47;1.88;;;19.50;58.20;;;;;;5045630;28;20674;-61
2023/03/05 11:36:21;;;;;;;1.60;1.10;;;19.40;58.30;;;;;;5045872;28;20202;-57
2023/03/05 11:38:54;;;;;;;7.25;1.60;;;19.40;57.90;;;;;;5043167;28;20219;-58
2023/03/05 11:41:35;;;;;;;3.38;1.10;;;19.50;58.80;;;;;;5044107;28;20208;-61
2023/03/05 11:44:09;;;;;;;3.92;1.33;;;19.70;59.60;;;;;;5038460;28;20215;-60
2023/03/05 11:46:40;;;;;;;1.30;1.00;;;19.90;60.10;;;;;;5045147;28;20203;-60
2023/03/05 11:49:12;;;;;;;4.43;1.10;;;19.90;60.60;;;;;;5040756;28;20664;-58
2023/03/05 11:51:43;;;;;;;2.72;1.02;;;20.00;60.90;;;;;;5044174;28;20223;-60
2023/03/05 11:54:19;;;;;;;3.25;1.30;;;20.10;61.20;;;;;;5042451;28;20259;-58
2023/03/05 11:56:46;;;;;;;2.40;1.10;;;20.10;61.50;;;;;;5043045;28;20199;-54
2023/03/05 11:59:17;;;;;;;10.90;1.23;;;20.00;62.10;;;;;;5047278;28;20674;-59
2023/03/05 12:01:47;;;;;;;22.90;1.75;;;20.10;62.70;;;;;;5049868;28;20199;-57
2023/03/05 12:04:14;;;;;;;6.72;1.25;;;20.10;63.10;;;;;;5043250;28;20219;-58
2023/03/05 12:06:45;;;;;;;3.97;1.20;;;20.10;63.60;;;;;;5042296;28;20195;-60
2023/03/05 12:09:19;;;;;;;2.47;1.40;;;20.10;64.10;;;;;;5039408;28;20200;-62
2023/03/05 12:11:49;;;;;;;2.55;1.00;;;20.20;64.90;;;;;;5040756;28;20192;-58
2023/03/05 12:14:23;;;;;;;1.77;1.33;;;20.20;65.20;;;;;;5045886;28;20194;-59
2023/03/05 12:16:55;;;;;;;4.45;1.40;;;20.20;65.40;;;;;;5040641;28;20198;-59
2023/03/05 12:19:39;;;;;;;2.28;1.20;;;20.20;65.70;;;;;;5049935;28;20195;-54
2023/03/05 12:22:16;;;;;;;2.28;0.98;;;20.20;65.90;;;;;;5040614;28;20219;-57
2023/03/05 12:24:44;;;;;;;2.75;1.58;;;20.20;66.50;;;;;;5038266;28;20215;-58
2023/03/05 12:27:17;;;;;;;2.30;1.15;;;20.30;66.90;;;;;;5046061;28;20204;-61
2023/03/05 12:29:49;;;;;;;3.08;1.20;;;20.30;67.00;;;;;;5044601;28;20191;-69
2023/03/05 12:33:01;;;;;;;3.38;1.55;;;20.40;67.50;;;;;;5041500;28;20191;-68
2023/03/05 12:35:37;;;;;;;2.05;1.13;;;20.40;68.00;;;;;;5040128;28;20849;-59
2023/03/05 12:38:30;;;;;;;1.73;1.20;;;20.40;68.10;;;;;;5036722;28;21041;-64
2023/03/05 12:41:34;;;;;;;1.45;0.85;;;20.50;68.30;;;;;;5029988;28;20204;-63
2023/03/05 12:44:26;;;;;;;3.13;1.00;;;20.50;68.40;;;;;;5040678;28;20607;-61
2023/03/05 12:47:16;;;;;;;1.25;1.08;;;20.50;68.60;;;;;;5019409;28;20469;-59
2023/03/05 12:49:45;;;;;;;2.35;0.98;;;20.50;68.80;;;;;;5041735;28;20206;-56
2023/03/05 12:52:23;;;;;;;1.55;1.38;;;20.50;68.90;;;;;;5047776;28;20202;-58
2023/03/05 12:55:02;;;;;;;1.30;1.15;;;20.50;69.00;;;;;;5045341;28;20249;-60
2023/03/05 12:57:31;;;;;;;2.50;2.00;;;20.50;69.20;;;;;;5043012;28;20636;-63